Mount Pleasant, TX (75455)

7:36 AM CDT en Abril 19, 2015 (GMT -0500)
Union Hill Road at CR 4640 | | Change Station
CLOSE
Current Station
Estación meteorológica personal
Location: Mount Pleasant, TX
Altura: 425 ft
Estaciones meteorológicas cercanas
Aviso en curso: Lake Wind Advisory

Alt 425 ft 33.09 °N, 94.90 °W | Updated 10 seconds ago

Niebla
Niebla
56.7 ° F
Sensación térmica 56.7 ° F
N
3.0
Viento Variable Viento desde SO
Gusts 3.0 mph

Hoy
Alta -- | Baja -- ° F
--% Posibilidad de precipitaciones
Ayer
Alta -- | Baja -- ° F
Precip. -- pul
6:45 AM 7:53 PM
Luna nueva, 1% visible
Presión 29.78 pul
Visibilidad 10.0 Millas
Nubes Despejado
Punto de rocío 56 ° F
Humedad 98%
Precipitaciones 0.15 pul
Espesor de la nieve No disponible.
UV 0 de una escala de 12
Polen 10.10 de una escala de 12
Calidad del aire No disponible.
Flu Activity Local Activity
METAR KOSA 191215Z AUTO 00000KT 10SM CLR 13/13 A2978 RMK AO1 T01300130

More Conditions Fewer Conditions

Presión 29.78 pul
Visibilidad 10.0 Millas
Nubes Despejado
Punto de rocío 56 ° F
Humedad 98%
Precipitaciones 0.15 pul
Espesor de la nieve No disponible.
UV 0 de una escala de 12
Polen 10.10 de una escala de 12
Calidad del aire No disponible.
Flu Activity Local Activity
METAR KOSA 191215Z AUTO 00000KT 10SM CLR 13/13 A2978 RMK AO1 T01300130

More Conditions Fewer Conditions

10-Day Weather Forecast

Almanac

Astronomía

Apr. 19, 2015 Salida Puesta
Hora real
Crepúsculo civil
Crepúsculo náutico
Crepúsculo astronómico
Luna
Horas de luz
Horas de luz
Tomorrow will be .
, % of the Moon is Illuminated

Extremos de hoy

Máximos del estado Bajos del estado

Community

WunderPhotos

Upload Photos

1,814,771 ¡fotos cargadas!

WunderBlogs® & News

Nearby

Calidad del aire

  Calidad del aire Índice AQ Contaminante
Not available.

Grosos de nieve

Estación Profundido Altura

Actividad de terremotos

Ciudad Distance Mag. Tiempo y dato
Magnitud mínima muestra es 2,5.

Temperaturas de aguas costeras

Lugar Temperatura

Stations

Estaciones meteorológicas cercanas

Ubicación de la estación Temp. Vientos helados Punto de rocío Humedad Viento Precip. Alt Actualizado Tipo
                   
Lake Wind Advisory
Statement as of 4:33 AM CDT en Abril 19, 2015

... Lake Wind Advisory in effect from noon today to 7 PM CDT this
evening...

The National Weather Service in Shreveport has issued a lake Wind
Advisory... which is in effect from noon today to 7 PM CDT this
evening.

* Event... a tightening pressure gradient over eastcentral Texas
this afternoon ahead of the eastward moving dryline will result
in southwest winds increasing to 15 to 20 mph with gusts to 30
mph.

* Timing... between 12 PM and 7 PM this afternoon.

* Impact... rough chop may cause hazardous boating conditions on
area lakes and open waters.

Precautionary/preparedness actions...

A lake Wind Advisory indicates that winds will cause rough chop
on area lakes. Small boats will be especially prone to capsizing.



15